Aérodrome :
LOGIN :

S'inscrire | Disclaimer

   EN    FR    IT 

 










Légende :    VFR   VFR Marginal   IFR   IFR Intensif   IFR Très Intensif
Visi : 
Plafond : 
>= 8 km
>= 3000ft
5 à 8 km
1000 à 3000 ft
1500m à 5 km
500 à 1000 ft
800 à 1500m
200 à 500 ft
< 800m
< 200 ft
Symboles :   Orages  Brouillard  Fortes neiges  Fortes précipitations  Vent > 20 kt
SIGMETs :   Divers  Orages  Givrage  Turbulence  Onde Orograph.  Cendres Volcan.






- Altitude de l'aérodrome : 1071 ft
- Code IATA : LWO


UKLL - L'viv

DERNIER METAR :
  • 251530Z 22005MPS 9999 BKN038 08/01 Q1001 R13/CLRD// NOSIG

METARs EXPIRÉS :
  • 251500Z 23004MPS 9999 BKN032 08/01 Q1001 R31/CLRD// NOSIG
  • 251430Z 23004MPS 9999 BKN031 08/00 Q1002 R31/D NOSIG
  • 251400Z 23005MPS CAVOK 08/M00 Q1002 R31/CLRD// NOSIG
  • 251330Z 23005MPS CAVOK 07/00 Q1002 R31/D NOSIG
  • 251300Z 23005MPS 9999 SCT032CB BKN032 08/00 Q1002 R31/CLRD// NOSIG

TAF TAF UKLL
Valide du 25 à 12h jusqu'au 26 à 12h UTC


251105Z 2512/2612 23006MPS 5000 BR SCT005 BKN015 TX08/2513Z TN03/2523Z
TEMPO 2515/2603 2100 -SHRA BKN007 BKN015CB
BECMG 2515/2517 20005MPS
BECMG 2520/2522 23006MPS
BECMG 2603/2605 VRB01MPS 2100 BR SCT005 BKN006
TEMPO 2605/2612 -SHRA BKN004 BKN020CB



MET'MAP, la Météo Aéronautique d'un coup d'oeil ! - Copyright ORBIFLY Décembre 2007 - Disclaimer

ORBIFLY MET'MAP TEAM :

Programmation & Développement : Alexandra Zaïnal
Sur une idée originale de : Baudouin d'Aumeries
Assistance à la programmation : Marc-Olivier Méhu
Soutien technique & logistique : Manuel Goepfert

Contact : metmap@orbifly.com




SOURCES & CREDITS :

   NOAA